Terminal Aerodrome Forecast
Issued by NWS Paducah, KY

Home | Current Version | Previous Version | Graphics & Text | Print | Product List | Glossary On
Versions: 1 2 3 4 5 6 7 8 9 10 11 12 13 14 15 16
000
FTUS43 KPAH 290500
TAFPAH
TAF
KPAH 290533Z 2906/3006 VRB03KT P6SM BKN090 OVC200
     FM290900 00000KT P6SM SCT250
     FM291500 31008KT P6SM SKC
     FM300000 34002KT P6SM SKC=

USA.gov is the U.S. government's official web portal to all federal, state and local government web resources and services.